Allen, Kansas
Current Conditions -  °F | °C
As of 1:53 AM on Monday 26 Jan 2015 (Local Time) from KEMP Reporting Station
Clear Clear  
Wind Chill: 29°   Ceiling: Unl
Heat Index: 29°   Visibility: 10mi
Dew Point: 26°   Wind: 3mph
Humidity: 89%   Direction: 270°W
Pressure: 30.12"   Gusts: NA
Location:  38.66°N, 96.17°W
Report Text: KEMP 260753Z AUTO 27003KT 10SM CLR M02/M03 A3012 RMK AO2 SLP211 T10171033
Loading
Personal Weather Stations






























Interactive Weather Map New forecast layout! Learn more

10-Day Weather Forecast

Advertisements
Track Severe Weather on mobile